sensor_id;sensor_type;location;lat;lon;timestamp;pressure;altitude;pressure_sealevel;temperature;humidity
10482;BME280;5288;42.334;23.876;2023-04-01T17:20:46;56274.72;;;-140.56;71.44
10482;BME280;5288;42.334;23.876;2023-04-01T17:23:23;56302.41;;;-140.56;71.62
10482;BME280;5288;42.334;23.876;2023-04-01T17:28:48;56270.78;;;-140.56;72.53
10482;BME280;5288;42.334;23.876;2023-04-01T17:31:26;56262.88;;;-140.56;73.30
10482;BME280;5288;42.334;23.876;2023-04-01T17:34:14;56286.59;;;-140.56;73.86
10482;BME280;5288;42.334;23.876;2023-04-01T17:36:58;56260.91;;;-140.56;73.83
10482;BME280;5288;42.334;23.876;2023-04-01T17:39:40;56264.84;;;-140.56;73.67
10482;BME280;5288;42.334;23.876;2023-04-01T17:42:15;56251.03;;;-140.56;73.52
10482;BME280;5288;42.334;23.876;2023-04-01T17:44:51;56318.22;;;-140.56;74.26
10482;BME280;5288;42.334;23.876;2023-04-01T17:47:39;56253.00;;;-140.56;75.19
10482;BME280;5288;42.334;23.876;2023-04-01T17:50:22;56270.78;;;-140.56;74.64
10482;BME280;5288;42.334;23.876;2023-04-01T17:55:44;56280.66;;;-140.56;78.79
10482;BME280;5288;42.334;23.876;2023-04-01T17:58:18;56288.56;;;-140.56;79.66
10482;BME280;5288;42.334;23.876;2023-04-01T18:00:53;56280.66;;;-140.56;79.22
10482;BME280;5288;42.334;23.876;2023-04-01T18:03:44;56294.50;;;-140.56;78.85
10482;BME280;5288;42.334;23.876;2023-04-01T18:06:20;56276.72;;;-140.56;78.93
10482;BME280;5288;42.334;23.876;2023-04-01T18:08:58;56282.63;;;-140.56;78.63
10482;BME280;5288;42.334;23.876;2023-04-01T18:11:34;56308.34;;;-140.56;77.79
10482;BME280;5288;42.334;23.876;2023-04-01T18:17:23;56314.25;;;-140.56;76.59
10482;BME280;5288;42.334;23.876;2023-04-01T18:20:14;56264.84;;;-140.56;76.71
10482;BME280;5288;42.334;23.876;2023-04-01T18:22:47;56314.25;;;-140.56;76.29
10482;BME280;5288;42.334;23.876;2023-04-01T18:25:22;56294.50;;;-140.56;75.54
10482;BME280;5288;42.334;23.876;2023-04-01T18:28:18;56294.50;;;-140.56;74.67
10482;BME280;5288;42.334;23.876;2023-04-01T18:30:53;56258.94;;;-140.56;73.70
10482;BME280;5288;42.334;23.876;2023-04-01T18:33:24;56270.78;;;-140.56;73.00
10482;BME280;5288;42.334;23.876;2023-04-01T18:35:54;56292.53;;;-140.56;73.15
10482;BME280;5288;42.334;23.876;2023-04-01T18:38:28;56286.59;;;-140.56;72.43
10482;BME280;5288;42.334;23.876;2023-04-01T18:41:10;56278.69;;;-140.56;71.51
10482;BME280;5288;42.334;23.876;2023-04-01T18:43:43;56320.19;;;-140.56;70.82
10482;BME280;5288;42.334;23.876;2023-04-01T18:46:25;56306.34;;;-140.56;69.76
10482;BME280;5288;42.334;23.876;2023-04-01T18:49:02;56306.34;;;-140.56;69.03
10482;BME280;5288;42.334;23.876;2023-04-01T18:51:39;56300.44;;;-140.56;68.23
10482;BME280;5288;42.334;23.876;2023-04-01T18:54:12;56314.25;;;-140.56;66.70
10482;BME280;5288;42.334;23.876;2023-04-01T18:56:46;56304.38;;;-140.56;67.71
10482;BME280;5288;42.334;23.876;2023-04-01T18:59:18;56288.56;;;-140.56;67.23
10482;BME280;5288;42.334;23.876;2023-04-01T19:01:59;56286.59;;;-140.56;66.47
10482;BME280;5288;42.334;23.876;2023-04-01T19:04:31;56294.50;;;-140.56;65.97
10482;BME280;5288;42.334;23.876;2023-04-01T19:07:19;56256.94;;;-140.56;65.82
10482;BME280;5288;42.334;23.876;2023-04-01T19:09:48;56306.34;;;-140.56;66.39
10482;BME280;5288;42.334;23.876;2023-04-01T19:12:34;56272.75;;;-140.56;65.87
10482;BME280;5288;42.334;23.876;2023-04-01T19:15:22;56286.59;;;-140.56;65.33
10482;BME280;5288;42.334;23.876;2023-04-01T19:18:02;56300.44;;;-140.56;65.27
10482;BME280;5288;42.334;23.876;2023-04-01T19:20:38;56306.34;;;-140.56;65.00
10482;BME280;5288;42.334;23.876;2023-04-01T19:26:04;56270.78;;;-140.56;64.50
10482;BME280;5288;42.334;23.876;2023-04-01T19:28:42;56302.41;;;-140.56;65.39
10482;BME280;5288;42.334;23.876;2023-04-01T19:31:22;56324.13;;;-140.56;65.95
10482;BME280;5288;42.334;23.876;2023-04-01T19:34:06;56284.63;;;-140.56;65.91
10482;BME280;5288;42.334;23.876;2023-04-01T19:36:41;56280.66;;;-140.56;65.80
10482;BME280;5288;42.334;23.876;2023-04-01T19:39:24;56286.59;;;-140.56;66.48
10482;BME280;5288;42.334;23.876;2023-04-01T19:41:57;56306.34;;;-140.56;66.67
10482;BME280;5288;42.334;23.876;2023-04-01T19:44:35;56314.25;;;-140.56;67.84
10482;BME280;5288;42.334;23.876;2023-04-01T19:47:14;56294.50;;;-140.56;67.67
10482;BME280;5288;42.334;23.876;2023-04-01T19:49:53;56320.19;;;-140.56;67.28
10482;BME280;5288;42.334;23.876;2023-04-01T19:52:31;56310.31;;;-140.56;68.71
10482;BME280;5288;42.334;23.876;2023-04-01T19:55:06;56310.31;;;-140.56;69.37
10482;BME280;5288;42.334;23.876;2023-04-01T19:57:44;56290.53;;;-140.56;70.23
10482;BME280;5288;42.334;23.876;2023-04-01T20:00:21;56308.34;;;-140.56;69.92
10482;BME280;5288;42.334;23.876;2023-04-01T20:03:04;56310.31;;;-140.56;70.08
10482;BME280;5288;42.334;23.876;2023-04-01T20:05:51;56306.34;;;-140.56;68.76
10482;BME280;5288;42.334;23.876;2023-04-01T20:08:32;56312.28;;;-140.56;68.25
10482;BME280;5288;42.334;23.876;2023-04-01T20:11:10;56286.59;;;-140.56;66.02
10482;BME280;5288;42.334;23.876;2023-04-01T20:13:46;56357.75;;;-140.56;65.04
10482;BME280;5288;42.334;23.876;2023-04-01T20:16:16;56294.50;;;-140.56;64.74
10482;BME280;5288;42.334;23.876;2023-04-01T20:18:48;56298.44;;;-140.56;63.22
10482;BME280;5288;42.334;23.876;2023-04-01T20:21:29;56294.50;;;-140.56;63.12
10482;BME280;5288;42.334;23.876;2023-04-01T20:24:03;56296.47;;;-140.56;62.14
10482;BME280;5288;42.334;23.876;2023-04-01T20:26:35;56320.19;;;-140.56;63.58
10482;BME280;5288;42.334;23.876;2023-04-01T20:29:24;56316.25;;;-140.56;64.68
10482;BME280;5288;42.334;23.876;2023-04-01T20:32:08;56310.31;;;-140.56;66.77
10482;BME280;5288;42.334;23.876;2023-04-01T20:37:39;56296.47;;;-140.56;67.95
10482;BME280;5288;42.334;23.876;2023-04-01T20:40:27;56284.63;;;-140.56;69.20
10482;BME280;5288;42.334;23.876;2023-04-01T20:43:23;56306.34;;;-140.56;70.63
10482;BME280;5288;42.334;23.876;2023-04-01T20:45:58;56322.16;;;-140.56;70.18
10482;BME280;5288;42.334;23.876;2023-04-01T20:51:37;56288.56;;;-140.56;70.99
10482;BME280;5288;42.334;23.876;2023-04-01T20:54:16;56300.44;;;-140.56;69.34
10482;BME280;5288;42.334;23.876;2023-04-01T20:56:55;56345.88;;;-140.56;66.71
10482;BME280;5288;42.334;23.876;2023-04-01T20:59:47;56300.44;;;-140.56;67.30
10482;BME280;5288;42.334;23.876;2023-04-01T21:02:29;56324.13;;;-140.56;65.44
10482;BME280;5288;42.334;23.876;2023-04-01T21:05:45;56318.22;;;-140.56;64.64
10482;BME280;5288;42.334;23.876;2023-04-01T21:08:22;56266.81;;;-140.56;63.95
10482;BME280;5288;42.334;23.876;2023-04-01T21:10:59;56294.50;;;-140.56;64.07
10482;BME280;5288;42.334;23.876;2023-04-01T21:13:41;56316.25;;;-140.56;63.76
10482;BME280;5288;42.334;23.876;2023-04-01T21:16:26;56343.91;;;-140.56;64.37
10482;BME280;5288;42.334;23.876;2023-04-01T21:19:08;56320.19;;;-140.56;64.44
10482;BME280;5288;42.334;23.876;2023-04-01T21:21:54;56330.06;;;-140.56;62.32
10482;BME280;5288;42.334;23.876;2023-04-01T21:24:44;56330.06;;;-140.56;61.71
10482;BME280;5288;42.334;23.876;2023-04-01T21:27:29;56284.63;;;-140.56;60.85
10482;BME280;5288;42.334;23.876;2023-04-01T21:30:11;56339.94;;;-140.56;60.75
10482;BME280;5288;42.334;23.876;2023-04-01T21:32:56;56276.72;;;-140.56;60.96
10482;BME280;5288;42.334;23.876;2023-04-01T21:35:33;56290.53;;;-140.56;60.70
10482;BME280;5288;42.334;23.876;2023-04-01T21:38:17;56296.47;;;-140.56;60.34
10482;BME280;5288;42.334;23.876;2023-04-01T21:41:16;56310.31;;;-140.56;60.03
10482;BME280;5288;42.334;23.876;2023-04-01T21:44:27;56302.41;;;-140.56;59.29
10482;BME280;5288;42.334;23.876;2023-04-01T21:47:14;56300.44;;;-140.56;59.44
10482;BME280;5288;42.334;23.876;2023-04-01T21:52:54;56300.44;;;-140.56;59.84
10482;BME280;5288;42.334;23.876;2023-04-01T21:55:51;56272.75;;;-140.56;60.66
10482;BME280;5288;42.334;23.876;2023-04-01T22:02:04;56302.41;;;-140.56;60.35
10482;BME280;5288;42.334;23.876;2023-04-01T22:04:48;56308.34;;;-140.56;60.48
10482;BME280;5288;42.334;23.876;2023-04-01T22:07:19;56345.88;;;-140.56;59.93
10482;BME280;5288;42.334;23.876;2023-04-01T22:09:53;56341.94;;;-140.56;60.20
10482;BME280;5288;42.334;23.876;2023-04-01T22:12:31;56280.66;;;-140.56;60.28
10482;BME280;5288;42.334;23.876;2023-04-01T22:15:06;56278.69;;;-140.56;60.03
10482;BME280;5288;42.334;23.876;2023-04-01T22:17:45;56306.34;;;-140.56;60.64
10482;BME280;5288;42.334;23.876;2023-04-01T22:20:25;56312.28;;;-140.56;60.34
10482;BME280;5288;42.334;23.876;2023-04-01T22:23:01;56310.31;;;-140.56;59.68
10482;BME280;5288;42.334;23.876;2023-04-01T22:25:36;56302.41;;;-140.56;59.86
10482;BME280;5288;42.334;23.876;2023-04-01T22:28:11;56288.56;;;-140.56;59.49
10482;BME280;5288;42.334;23.876;2023-04-01T22:30:42;56314.25;;;-140.56;59.59
10482;BME280;5288;42.334;23.876;2023-04-01T22:33:16;56298.44;;;-140.56;59.26
10482;BME280;5288;42.334;23.876;2023-04-01T22:35:51;56288.56;;;-140.56;59.22
10482;BME280;5288;42.334;23.876;2023-04-01T22:38:32;56343.91;;;-140.56;59.39
10482;BME280;5288;42.334;23.876;2023-04-01T22:41:06;56290.53;;;-140.56;58.34
10482;BME280;5288;42.334;23.876;2023-04-01T22:43:40;56278.69;;;-140.56;58.77
10482;BME280;5288;42.334;23.876;2023-04-01T22:46:19;56298.44;;;-140.56;58.04
10482;BME280;5288;42.334;23.876;2023-04-01T22:48:52;56294.50;;;-140.56;58.06
10482;BME280;5288;42.334;23.876;2023-04-01T22:51:37;56324.13;;;-140.56;57.88
10482;BME280;5288;42.334;23.876;2023-04-01T22:54:13;56316.25;;;-140.56;57.68
10482;BME280;5288;42.334;23.876;2023-04-01T22:56:46;56302.41;;;-140.56;58.08
10482;BME280;5288;42.334;23.876;2023-04-01T22:59:19;56304.38;;;-140.56;57.96
10482;BME280;5288;42.334;23.876;2023-04-01T23:01:52;56306.34;;;-140.56;57.92
10482;BME280;5288;42.334;23.876;2023-04-01T23:04:24;56306.34;;;-140.56;57.71
10482;BME280;5288;42.334;23.876;2023-04-01T23:06:59;56316.25;;;-140.56;57.95
10482;BME280;5288;42.334;23.876;2023-04-01T23:09:28;56264.84;;;-140.56;57.85
10482;BME280;5288;42.334;23.876;2023-04-01T23:11:58;56306.34;;;-140.56;57.95
10482;BME280;5288;42.334;23.876;2023-04-01T23:14:43;56290.53;;;-140.56;57.86
10482;BME280;5288;42.334;23.876;2023-04-01T23:23:15;56334.03;;;-140.56;58.15
10482;BME280;5288;42.334;23.876;2023-04-01T23:25:52;56339.94;;;-140.56;58.77
10482;BME280;5288;42.334;23.876;2023-04-01T23:28:46;56308.34;;;-140.56;58.58
10482;BME280;5288;42.334;23.876;2023-04-01T23:31:30;56330.06;;;-140.56;59.37
10482;BME280;5288;42.334;23.876;2023-04-01T23:34:00;56337.97;;;-140.56;58.21
10482;BME280;5288;42.334;23.876;2023-04-01T23:36:28;56302.41;;;-140.56;59.07
10482;BME280;5288;42.334;23.876;2023-04-01T23:38:56;56286.59;;;-140.56;58.58
10482;BME280;5288;42.334;23.876;2023-04-01T23:41:26;56300.44;;;-140.56;58.74
10482;BME280;5288;42.334;23.876;2023-04-01T23:43:56;56294.50;;;-140.56;58.04
10482;BME280;5288;42.334;23.876;2023-04-01T23:46:25;56306.34;;;-140.56;58.14
10482;BME280;5288;42.334;23.876;2023-04-01T23:48:55;56312.28;;;-140.56;58.18
10482;BME280;5288;42.334;23.876;2023-04-01T23:51:25;56320.19;;;-140.56;57.24
10482;BME280;5288;42.334;23.876;2023-04-01T23:53:58;56298.44;;;-140.56;57.58
10482;BME280;5288;42.334;23.876;2023-04-01T23:56:40;56320.19;;;-140.56;57.93
10482;BME280;5288;42.334;23.876;2023-04-01T23:59:11;56334.03;;;-140.56;57.30
